createdAt,value
2023-02-04T00:00:02.091Z,4
2023-02-04T00:20:02.618Z,3.9
2023-02-04T00:40:02.687Z,3.8
2023-02-04T01:00:02.957Z,3.5
2023-02-04T01:20:02.299Z,3.3
2023-02-04T01:40:02.553Z,3.2
2023-02-04T02:00:03.187Z,3
2023-02-04T02:20:02.506Z,2.7
2023-02-04T02:40:02.981Z,2.7
2023-02-04T03:00:02.323Z,2.6
2023-02-04T03:20:02.905Z,2.6
2023-02-04T03:40:02.271Z,2.4
2023-02-04T04:00:03.148Z,2.3
2023-02-04T04:20:02.929Z,2.3
2023-02-04T04:40:02.377Z,2.1
2023-02-04T05:00:02.720Z,2.1
2023-02-04T05:20:02.500Z,2.3
2023-02-04T05:40:02.807Z,2.1
2023-02-04T06:00:02.177Z,2.2
2023-02-04T06:20:02.277Z,2
2023-02-04T06:40:02.519Z,1.9
2023-02-04T07:00:02.987Z,1.8
2023-02-04T07:20:02.449Z,1.7
2023-02-04T07:40:02.718Z,1.7
2023-02-04T08:00:03.089Z,1.8
2023-02-04T08:20:02.401Z,2
2023-02-04T08:40:02.821Z,2.3
2023-02-04T09:00:02.370Z,2.7
2023-02-04T09:20:03.027Z,3.3
2023-02-04T09:40:02.500Z,3.7
2023-02-04T10:00:02.949Z,4.3
2023-02-04T10:20:02.374Z,4.5
2023-02-04T10:40:02.790Z,4.6
2023-02-04T11:00:02.247Z,4.9
2023-02-04T11:20:03.043Z,4.5
2023-02-04T11:40:02.555Z,4.8
2023-02-04T12:00:02.994Z,4.7
2023-02-04T12:20:02.639Z,4.5
2023-02-04T12:40:02.945Z,5.8
2023-02-04T13:00:02.384Z,5.3
2023-02-04T13:20:03.117Z,4.8
2023-02-04T13:40:02.617Z,4.6
2023-02-04T14:00:03.149Z,4.4
2023-02-04T14:20:02.592Z,4.7
2023-02-04T14:40:03.032Z,4.4
2023-02-04T15:00:03.064Z,4.1
2023-02-04T15:20:02.648Z,3.8
2023-02-04T15:40:03.017Z,3.6
2023-02-04T16:00:03.501Z,3.2
2023-02-04T16:20:02.387Z,2.8
2023-02-04T16:40:03.393Z,2.4
2023-02-04T17:00:03.327Z,2.2
2023-02-04T17:20:03.778Z,1.9
2023-02-04T17:40:02.385Z,1.6
2023-02-04T18:00:04.012Z,1.4
2023-02-04T18:20:02.608Z,1.1
2023-02-04T18:40:03.026Z,0.8
2023-02-04T19:00:02.571Z,0.6
2023-02-04T19:20:02.900Z,0.4
2023-02-04T19:40:02.330Z,0.2
2023-02-04T20:00:02.891Z,0.1
2023-02-04T20:20:02.541Z,0
2023-02-04T20:40:03.486Z,-0.3
2023-02-04T21:00:03.032Z,-0.4
2023-02-04T21:20:02.852Z,-0.5
2023-02-04T21:40:02.580Z,-0.8
2023-02-04T22:00:03.189Z,-1
2023-02-04T22:20:03.191Z,-1.2
2023-02-04T22:40:02.658Z,-1.5
2023-02-04T23:00:03.761Z,-1.5
2023-02-04T23:20:03.001Z,-1.5
2023-02-04T23:40:02.460Z,-1.5
